Aérodrome :
LOGIN :

S'inscrire | Disclaimer

   EN    FR    IT 

 










Légende :    VFR   VFR Marginal   IFR   IFR Intensif   IFR Très Intensif
Visi : 
Plafond : 
>= 8 km
>= 3000ft
5 à 8 km
1000 à 3000 ft
1500m à 5 km
500 à 1000 ft
800 à 1500m
200 à 500 ft
< 800m
< 200 ft
Symboles :   Orages  Brouillard  Fortes neiges  Fortes précipitations  Vent > 20 kt
SIGMETs :   Divers  Orages  Givrage  Turbulence  Onde Orograph.  Cendres Volcan.






- Altitude de l'aérodrome : 50 ft
- Code IATA : KOI


EGPA - Kirkwall

DERNIER METAR :
  • 210350Z AUTO 21023KT 9999 SCT044/// 05/02 Q0992

METARs EXPIRÉS :
  • 210320Z AUTO 22022KT 9999 NCD 05/03 Q0993
  • 210250Z AUTO 22023KT 9999 NCD 05/03 Q0993
  • 210220Z AUTO 22017KT 9999 NCD 05/03 Q0994
  • 210150Z AUTO 22019KT 9999 SCT028/// BKN036/// 05/02 Q0994
  • 210120Z AUTO 25023KT 9999 NCD 06/02 Q0995
  • 210050Z AUTO 25025KT 9999 FEW004/// BKN023/// 06/02 Q0995 RERA

TAF TAF EGPA
Valide du 21 à 03h jusqu'au 21 à 12h UTC


210157Z 2103/2112 23020G30KT 9999 SCT025
TEMPO 2103/2110 22025G40KT 6000 RA BKN012
PROB40
TEMPO 2104/2110 23032G50KT
BECMG 2110/2112 26032G45KT
TEMPO 2110/2112 28038G55KT



MET'MAP, la Météo Aéronautique d'un coup d'oeil ! - Copyright ORBIFLY Décembre 2007 - Disclaimer

ORBIFLY MET'MAP TEAM :

Programmation & Développement : Alexandra Zaïnal
Sur une idée originale de : Baudouin d'Aumeries
Assistance à la programmation : Marc-Olivier Méhu
Soutien technique & logistique : Manuel Goepfert

Contact : metmap@orbifly.com




SOURCES & CREDITS :

   NOAA